Aviston, Illinois
Current Conditions -  °F | °C
As of 4:58 PM on Friday 31 Oct 2014 (Local Time) from KBLV Reporting Station
Few Clouds Few Clouds  
Wind Chill: 40°   Ceiling: Unl
Heat Index: 44°   Visibility: 10mi
Dew Point: 21°   Wind: 8mph
Humidity: 39%   Direction: 340°NNW
Pressure: 30.28"   Gusts: 26mph
Location:  38.61°N, 89.61°W
Report Text: KBLV 312158Z AUTO 34007G23KT 300V360 10SM FEW060 07/M06 A3028 RMK AO2 PK WND 34029/05 SLP259 T00691061
Loading
Personal Weather Stations






























Interactive Weather Map
Tropical Storm Tracking
New forecast layout! Learn more

10-Day Weather Forecast

Advertisements
Track Severe Weather on mobile